createdAt,value
2023-02-26T00:01:25.205Z,100002.00
2023-02-26T00:03:53.560Z,100013.00
2023-02-26T00:06:21.269Z,100009.00
2023-02-26T00:08:49.062Z,100013.00
2023-02-26T00:11:16.997Z,100016.00
2023-02-26T00:13:45.170Z,100020.00
2023-02-26T00:16:32.698Z,100016.00
2023-02-26T00:19:04.359Z,100022.00
2023-02-26T00:21:33.012Z,100032.00
2023-02-26T00:24:02.446Z,100039.00
2023-02-26T00:26:31.852Z,100044.00
2023-02-26T00:29:00.352Z,100038.00
2023-02-26T00:31:28.466Z,100045.00
2023-02-26T00:33:56.869Z,100052.00
2023-02-26T00:36:25.416Z,100055.00
2023-02-26T00:39:02.584Z,100054.00
2023-02-26T00:41:30.838Z,100059.00
2023-02-26T00:44:00.782Z,100061.00
2023-02-26T00:46:37.276Z,100074.00
2023-02-26T00:49:08.201Z,100079.00
2023-02-26T00:51:36.491Z,100081.00
2023-02-26T00:54:06.010Z,100082.00
2023-02-26T00:56:33.810Z,100086.00
2023-02-26T00:59:02.221Z,100074.00
2023-02-26T01:01:29.979Z,100081.00
2023-02-26T01:03:57.891Z,100084.00
2023-02-26T01:06:26.841Z,100086.00
2023-02-26T01:08:54.925Z,100091.00
2023-02-26T01:11:22.993Z,100091.00
2023-02-26T01:13:50.844Z,100096.00
2023-02-26T01:16:21.485Z,100094.00
2023-02-26T01:18:51.035Z,100100.00
2023-02-26T01:21:19.806Z,100105.00
2023-02-26T01:23:48.465Z,100094.00
2023-02-26T01:26:20.606Z,100100.00
2023-02-26T01:28:48.568Z,100100.00
2023-02-26T01:31:37.208Z,100095.00
2023-02-26T01:34:31.225Z,100094.00
2023-02-26T01:37:00.918Z,100100.00
2023-02-26T01:39:48.903Z,100106.00
2023-02-26T01:42:16.734Z,100106.00
2023-02-26T01:44:55.412Z,100105.00
2023-02-26T01:47:23.107Z,100107.00
2023-02-26T01:49:51.073Z,100112.00
2023-02-26T01:52:30.728Z,100110.00
2023-02-26T01:54:58.533Z,100104.00
2023-02-26T01:57:26.387Z,100109.00
2023-02-26T01:59:53.974Z,100107.00
2023-02-26T02:02:25.887Z,100106.00
2023-02-26T02:04:53.926Z,100104.00
2023-02-26T02:07:21.793Z,100111.00
2023-02-26T02:09:49.547Z,100127.00
2023-02-26T02:12:35.944Z,100139.00
2023-02-26T02:15:09.841Z,100134.00
2023-02-26T02:17:56.358Z,100141.00
2023-02-26T02:20:30.499Z,100143.00
2023-02-26T02:23:01.317Z,100143.00
2023-02-26T02:25:36.045Z,100145.00
2023-02-26T02:28:14.466Z,100148.00
2023-02-26T02:31:02.785Z,100149.00
2023-02-26T02:33:35.101Z,100156.00
2023-02-26T04:46:04.641Z,100325.00
2023-02-26T04:48:33.848Z,100325.00
2023-02-26T04:51:01.665Z,100332.00
2023-02-26T04:53:29.586Z,100333.00
2023-02-26T04:55:57.469Z,100331.00
2023-02-26T04:58:25.243Z,100339.00
2023-02-26T05:00:54.987Z,100342.00
2023-02-26T05:03:22.894Z,100334.00
2023-02-26T05:05:50.841Z,100335.00
2023-02-26T05:08:18.723Z,100339.00
2023-02-26T05:10:46.762Z,100345.00
2023-02-26T05:13:14.784Z,100347.00
2023-02-26T05:15:42.606Z,100344.00
2023-02-26T05:18:12.406Z,100351.00
2023-02-26T05:20:42.098Z,100362.00
2023-02-26T05:23:09.949Z,100358.00
2023-02-26T05:25:40.058Z,100356.00
2023-02-26T05:28:07.870Z,100360.00
2023-02-26T05:30:35.662Z,100371.00
2023-02-26T05:33:03.598Z,100379.00
2023-02-26T05:35:31.223Z,100374.00
2023-02-26T05:37:58.973Z,100377.00
2023-02-26T05:40:26.615Z,100384.00
2023-02-26T05:42:54.188Z,100377.00
2023-02-26T05:45:21.750Z,100369.00
2023-02-26T05:47:49.427Z,100383.00
2023-02-26T05:50:17.120Z,100387.00
2023-02-26T05:52:44.764Z,100379.00
2023-02-26T05:55:12.522Z,100399.00
2023-02-26T05:57:40.045Z,100394.00
2023-02-26T06:00:08.244Z,100406.00
2023-02-26T06:02:42.351Z,100412.00
2023-02-26T06:05:10.278Z,100416.00
2023-02-26T06:07:37.971Z,100423.00
2023-02-26T06:10:06.297Z,100423.00
2023-02-26T06:12:33.936Z,100433.00
2023-02-26T06:15:01.727Z,100439.00
2023-02-26T06:17:29.648Z,100444.00
2023-02-26T06:19:57.398Z,100452.00
2023-02-26T06:22:25.229Z,100451.00
2023-02-26T06:24:52.859Z,100455.00
2023-02-26T06:27:20.579Z,100454.00
2023-02-26T06:29:48.430Z,100467.00
2023-02-26T06:32:16.194Z,100468.00
2023-02-26T06:34:43.753Z,100476.00
2023-02-26T06:37:11.529Z,100475.00
2023-02-26T06:39:39.235Z,100474.00
2023-02-26T06:42:06.962Z,100487.00
2023-02-26T06:44:34.715Z,100482.00
2023-02-26T06:47:02.365Z,100491.00
2023-02-26T06:49:30.080Z,100497.00
2023-02-26T06:51:57.885Z,100501.00
2023-02-26T06:54:25.680Z,100496.00
2023-02-26T06:56:54.041Z,100506.00
2023-02-26T06:59:22.219Z,100500.00
2023-02-26T07:01:49.772Z,100516.00
2023-02-26T07:04:19.766Z,100517.00
2023-02-26T07:06:48.292Z,100526.00
2023-02-26T07:09:15.912Z,100521.00
2023-02-26T07:11:46.543Z,100520.00
2023-02-26T07:14:14.143Z,100529.00
2023-02-26T07:16:41.966Z,100535.00
2023-02-26T07:19:12.840Z,100544.00
2023-02-26T07:21:40.529Z,100537.00
2023-02-26T07:24:08.355Z,100550.00
2023-02-26T07:26:36.068Z,100538.00
2023-02-26T07:29:03.630Z,100558.00
2023-02-26T07:31:31.846Z,100553.00
2023-02-26T07:33:59.691Z,100565.00
2023-02-26T07:36:27.771Z,100571.00
2023-02-26T07:38:55.711Z,100574.00
2023-02-26T07:41:23.570Z,100575.00
2023-02-26T07:43:51.337Z,100586.00
2023-02-26T07:46:19.018Z,100583.00
2023-02-26T07:48:46.745Z,100590.00
2023-02-26T07:51:14.471Z,100589.00
2023-02-26T07:53:42.225Z,100598.00
2023-02-26T07:56:10.279Z,100596.00
2023-02-26T07:58:37.986Z,100604.00
2023-02-26T08:01:05.897Z,100607.00
2023-02-26T08:03:33.592Z,100607.00
2023-02-26T08:06:01.292Z,100607.00
2023-02-26T08:08:29.229Z,100623.00
2023-02-26T08:10:59.176Z,100623.00
2023-02-26T08:13:27.301Z,100628.00
2023-02-26T08:15:55.106Z,100639.00
2023-02-26T08:18:23.041Z,100641.00
2023-02-26T08:20:53.800Z,100653.00
2023-02-26T08:23:21.639Z,100651.00
2023-02-26T08:25:50.630Z,100647.00
2023-02-26T08:28:18.246Z,100655.00
2023-02-26T08:30:45.939Z,100660.00
2023-02-26T08:33:13.683Z,100662.00
2023-02-26T08:35:41.788Z,100672.00
2023-02-26T08:38:09.728Z,100675.00
2023-02-26T08:40:37.520Z,100679.00
2023-02-26T08:43:05.224Z,100681.00
2023-02-26T08:45:33.042Z,100681.00
2023-02-26T08:48:00.925Z,100686.00
2023-02-26T08:50:28.590Z,100690.00
2023-02-26T08:52:57.225Z,100692.00
2023-02-26T08:55:24.770Z,100693.00
2023-02-26T08:57:53.659Z,100697.00
2023-02-26T09:00:24.421Z,100698.00
2023-02-26T09:02:52.128Z,100707.00
2023-02-26T09:05:20.005Z,100712.00
2023-02-26T09:07:47.601Z,100702.00
2023-02-26T09:10:15.307Z,100719.00
2023-02-26T09:12:43.142Z,100713.00
2023-02-26T09:15:11.207Z,100731.00
2023-02-26T09:17:39.780Z,100737.00
2023-02-26T09:20:07.772Z,100736.00
2023-02-26T09:22:35.932Z,100744.00
2023-02-26T09:25:04.161Z,100742.00
2023-02-26T09:27:31.828Z,100754.00
2023-02-26T09:29:59.361Z,100756.00
2023-02-26T09:32:27.223Z,100764.00
2023-02-26T09:34:54.950Z,100762.00
2023-02-26T09:37:22.655Z,100764.00
2023-02-26T09:39:50.896Z,100763.00
2023-02-26T09:42:22.701Z,100767.00
2023-02-26T09:44:51.509Z,100771.00
2023-02-26T09:47:24.010Z,100768.00
2023-02-26T09:49:54.175Z,100765.00
2023-02-26T09:52:29.841Z,100765.00
2023-02-26T09:54:59.226Z,100774.00
2023-02-26T09:57:31.643Z,100770.00
2023-02-26T10:00:00.647Z,100783.00
2023-02-26T10:02:32.797Z,100778.00
2023-02-26T10:05:02.548Z,100779.00
2023-02-26T10:07:45.739Z,100777.00
2023-02-26T10:10:33.401Z,100773.00
2023-02-26T10:13:01.268Z,100776.00
2023-02-26T10:15:28.916Z,100783.00
2023-02-26T10:18:17.692Z,100800.00
2023-02-26T10:20:50.923Z,100796.00
2023-02-26T10:23:21.899Z,100789.00
2023-02-26T10:26:08.174Z,100789.00
2023-02-26T10:28:45.174Z,100788.00
2023-02-26T10:31:13.699Z,100797.00
2023-02-26T10:33:54.965Z,100794.00
2023-02-26T10:36:25.538Z,100795.00
2023-02-26T10:38:54.818Z,100797.00
2023-02-26T10:41:25.014Z,100803.00
2023-02-26T10:43:57.288Z,100807.00
2023-02-26T10:46:40.131Z,100811.00
2023-02-26T10:49:26.584Z,100818.00
2023-02-26T10:51:55.185Z,100818.00
2023-02-26T10:54:35.842Z,100817.00
2023-02-26T10:57:04.492Z,100811.00
2023-02-26T10:59:34.424Z,100816.00
2023-02-26T11:02:02.106Z,100825.00
2023-02-26T11:04:29.793Z,100816.00
2023-02-26T11:07:01.192Z,100821.00
2023-02-26T11:09:33.556Z,100814.00
2023-02-26T11:12:07.090Z,100822.00
2023-02-26T11:14:34.868Z,100818.00
2023-02-26T11:17:04.842Z,100830.00
2023-02-26T11:19:35.302Z,100818.00
2023-02-26T11:22:04.406Z,100825.00
2023-02-26T11:24:35.138Z,100824.00
2023-02-26T11:27:04.935Z,100828.00
2023-02-26T11:29:38.233Z,100825.00
2023-02-26T11:32:31.812Z,100823.00
2023-02-26T11:34:59.529Z,100829.00
2023-02-26T11:37:30.963Z,100825.00
2023-02-26T11:39:59.875Z,100835.00
2023-02-26T11:42:27.761Z,100830.00
2023-02-26T11:44:55.491Z,100826.00
2023-02-26T11:47:27.446Z,100829.00
2023-02-26T11:49:56.610Z,100827.00
2023-02-26T11:52:33.274Z,100821.00
2023-02-26T11:55:02.748Z,100844.00
2023-02-26T11:57:31.142Z,100828.00
2023-02-26T11:59:59.937Z,100827.00
2023-02-26T12:02:32.151Z,100827.00
2023-02-26T12:05:02.844Z,100824.00
2023-02-26T12:07:30.706Z,100831.00
2023-02-26T12:09:58.563Z,100813.00
2023-02-26T12:12:29.902Z,100816.00
2023-02-26T12:15:16.073Z,100821.00
2023-02-26T12:17:52.945Z,100821.00
2023-02-26T12:20:21.789Z,100819.00
2023-02-26T12:22:54.918Z,100827.00
2023-02-26T12:25:22.669Z,100838.00
2023-02-26T12:28:10.281Z,100832.00
2023-02-26T12:30:51.862Z,100835.00
2023-02-26T12:33:27.125Z,100833.00
2023-02-26T12:36:17.089Z,100833.00
2023-02-26T12:38:48.730Z,100838.00
2023-02-26T12:41:35.306Z,100838.00
2023-02-26T12:44:05.370Z,100845.00
2023-02-26T12:46:33.204Z,100849.00
2023-02-26T12:49:07.169Z,100844.00
2023-02-26T12:51:37.562Z,100846.00
2023-02-26T12:54:07.741Z,100851.00
2023-02-26T12:56:54.132Z,100850.00
2023-02-26T12:59:27.699Z,100855.00
2023-02-26T13:02:01.748Z,100852.00
2023-02-26T13:04:29.695Z,100852.00
2023-02-26T13:07:12.584Z,100849.00
2023-02-26T13:09:59.378Z,100855.00
2023-02-26T13:12:29.271Z,100847.00
2023-02-26T13:15:12.474Z,100851.00
2023-02-26T13:17:40.257Z,100850.00
2023-02-26T13:20:12.469Z,100846.00
2023-02-26T13:22:41.981Z,100845.00
2023-02-26T13:25:26.316Z,100847.00
2023-02-26T13:27:54.772Z,100849.00
2023-02-26T13:30:30.443Z,100846.00
2023-02-26T13:32:58.745Z,100847.00
2023-02-26T13:35:30.449Z,100852.00
2023-02-26T13:37:59.112Z,100853.00
2023-02-26T13:40:39.247Z,100849.00
2023-02-26T13:43:13.093Z,100849.00
2023-02-26T13:45:52.939Z,100858.00
2023-02-26T13:48:39.673Z,100847.00
2023-02-26T13:51:10.176Z,100843.00
2023-02-26T13:53:41.013Z,100834.00
2023-02-26T13:56:16.736Z,100837.00
2023-02-26T13:58:45.374Z,100832.00
2023-02-26T14:01:18.201Z,100843.00
2023-02-26T14:03:53.276Z,100839.00
2023-02-26T14:06:39.581Z,100845.00
2023-02-26T14:09:22.393Z,100845.00
2023-02-26T14:11:56.261Z,100843.00
2023-02-26T14:14:26.359Z,100844.00
2023-02-26T14:16:55.812Z,100851.00
2023-02-26T14:19:29.524Z,100844.00
2023-02-26T14:22:14.779Z,100846.00
2023-02-26T14:24:46.710Z,100848.00
2023-02-26T14:27:14.530Z,100852.00
2023-02-26T14:29:43.357Z,100852.00
2023-02-26T14:32:11.114Z,100856.00
2023-02-26T14:34:43.697Z,100856.00
2023-02-26T14:37:12.822Z,100856.00
2023-02-26T14:39:41.665Z,100857.00
2023-02-26T14:42:13.339Z,100861.00
2023-02-26T14:44:42.230Z,100864.00
2023-02-26T14:47:10.228Z,100862.00
2023-02-26T14:49:42.151Z,100865.00
2023-02-26T14:52:17.915Z,100871.00
2023-02-26T14:55:08.311Z,100881.00
2023-02-26T14:57:54.566Z,100873.00
2023-02-26T15:00:30.653Z,100881.00
2023-02-26T15:03:04.558Z,100882.00
2023-02-26T15:05:50.934Z,100880.00
2023-02-26T15:08:37.519Z,100883.00
2023-02-26T15:11:07.974Z,100882.00
2023-02-26T15:13:54.414Z,100890.00
2023-02-26T15:16:41.013Z,100891.00
2023-02-26T15:19:29.607Z,100895.00
2023-02-26T15:22:00.171Z,100892.00
2023-02-26T15:24:28.584Z,100896.00
2023-02-26T15:27:00.287Z,100893.00
2023-02-26T15:29:29.623Z,100893.00
2023-02-26T15:32:26.972Z,100905.00
2023-02-26T15:35:15.789Z,100909.00
2023-02-26T15:37:43.632Z,100914.00
2023-02-26T15:40:11.864Z,100908.00
2023-02-26T15:42:39.998Z,100914.00
2023-02-26T15:45:25.405Z,100914.00
2023-02-26T15:47:55.397Z,100912.00
2023-02-26T15:50:24.655Z,100908.00
2023-02-26T15:52:54.287Z,100911.00
2023-02-26T15:55:27.344Z,100907.00
2023-02-26T15:57:55.297Z,100910.00
2023-02-26T16:00:25.991Z,100919.00
2023-02-26T16:02:54.385Z,100914.00
2023-02-26T16:05:29.018Z,100919.00
2023-02-26T16:07:57.073Z,100922.00
2023-02-26T16:10:35.153Z,100914.00
2023-02-26T16:13:02.677Z,100911.00
2023-02-26T16:15:32.268Z,100923.00
2023-02-26T16:18:00.759Z,100922.00
2023-02-26T16:20:30.038Z,100913.00
2023-02-26T16:22:59.159Z,100916.00
2023-02-26T16:25:29.386Z,100920.00
2023-02-26T16:28:01.262Z,100922.00
2023-02-26T16:30:37.173Z,100926.00
2023-02-26T16:33:05.590Z,100924.00
2023-02-26T16:35:35.120Z,100932.00
2023-02-26T16:38:06.432Z,100947.00
2023-02-26T16:40:35.040Z,100940.00
2023-02-26T16:43:07.153Z,100952.00
2023-02-26T16:45:37.892Z,100947.00
2023-02-26T16:48:06.323Z,100952.00
2023-02-26T16:50:35.466Z,100958.00
2023-02-26T16:53:07.749Z,100960.00
2023-02-26T16:55:36.114Z,100963.00
2023-02-26T16:58:07.396Z,100962.00
2023-02-26T17:00:37.615Z,100969.00
2023-02-26T17:03:21.247Z,100983.00
2023-02-26T17:05:58.253Z,100972.00
2023-02-26T17:08:33.306Z,100981.00
2023-02-26T17:11:02.870Z,100980.00
2023-02-26T17:13:31.812Z,100975.00
2023-02-26T17:16:00.342Z,100981.00
2023-02-26T17:18:28.383Z,100986.00
2023-02-26T17:20:56.012Z,100988.00
2023-02-26T17:23:24.543Z,100992.00
2023-02-26T17:25:54.955Z,100995.00
2023-02-26T17:28:24.016Z,101002.00
2023-02-26T17:30:52.426Z,100995.00
2023-02-26T17:33:20.472Z,100997.00
2023-02-26T17:35:48.532Z,101010.00
2023-02-26T17:38:16.549Z,101008.00
2023-02-26T17:40:45.548Z,101016.00
2023-02-26T17:43:13.347Z,101009.00
2023-02-26T17:45:41.080Z,101005.00
2023-02-26T17:48:09.144Z,101013.00
2023-02-26T17:50:54.023Z,101018.00
2023-02-26T17:53:22.498Z,101024.00
2023-02-26T17:55:50.910Z,101032.00
2023-02-26T17:58:20.304Z,101030.00
2023-02-26T18:00:50.318Z,101034.00
2023-02-26T18:03:21.057Z,101034.00
2023-02-26T18:05:49.207Z,101040.00
2023-02-26T18:08:19.849Z,101043.00
2023-02-26T18:10:47.722Z,101043.00
2023-02-26T18:13:15.538Z,101046.00
2023-02-26T18:15:43.490Z,101049.00
2023-02-26T18:18:14.607Z,101042.00
2023-02-26T18:20:42.675Z,101046.00
2023-02-26T18:23:13.840Z,101052.00
2023-02-26T18:25:41.793Z,101050.00
2023-02-26T18:28:15.410Z,101051.00
2023-02-26T18:30:44.392Z,101059.00
2023-02-26T18:33:13.260Z,101061.00
2023-02-26T18:35:46.632Z,101064.00
2023-02-26T18:38:15.232Z,101067.00
2023-02-26T18:40:42.969Z,101064.00
2023-02-26T18:43:13.269Z,101066.00
2023-02-26T18:45:41.630Z,101088.00
2023-02-26T18:48:13.224Z,101077.00
2023-02-26T18:50:41.118Z,101083.00
2023-02-26T18:53:09.156Z,101081.00
2023-02-26T18:55:37.373Z,101087.00
2023-02-26T18:58:05.189Z,101090.00
2023-02-26T19:00:33.084Z,101092.00
2023-02-26T19:03:00.700Z,101093.00
2023-02-26T19:05:28.425Z,101092.00
2023-02-26T19:07:56.797Z,101089.00
2023-02-26T19:10:24.651Z,101104.00
2023-02-26T19:12:53.100Z,101096.00
2023-02-26T19:15:20.887Z,101092.00
2023-02-26T19:17:48.660Z,101106.00
2023-02-26T19:20:16.997Z,101109.00
2023-02-26T19:22:46.688Z,101108.00
2023-02-26T19:25:14.618Z,101109.00
2023-02-26T19:27:42.403Z,101122.00
2023-02-26T19:30:10.436Z,101125.00
2023-02-26T19:32:38.362Z,101124.00
2023-02-26T19:35:08.141Z,101129.00
2023-02-26T19:37:36.149Z,101133.00
2023-02-26T19:40:10.789Z,101133.00
2023-02-26T19:42:38.539Z,101135.00
2023-02-26T19:45:06.404Z,101139.00
2023-02-26T19:47:34.041Z,101136.00
2023-02-26T19:50:01.913Z,101148.00
2023-02-26T19:52:31.461Z,101144.00
2023-02-26T19:54:58.996Z,101142.00
2023-02-26T19:57:27.274Z,101150.00
2023-02-26T19:59:55.068Z,101152.00
2023-02-26T20:02:22.789Z,101154.00
2023-02-26T20:04:50.443Z,101154.00
2023-02-26T20:07:18.049Z,101163.00
2023-02-26T20:09:46.122Z,101162.00
2023-02-26T20:12:14.359Z,101166.00
2023-02-26T20:14:42.220Z,101169.00
2023-02-26T20:17:13.192Z,101172.00
2023-02-26T20:19:43.100Z,101171.00
2023-02-26T20:22:11.892Z,101174.00
2023-02-26T20:24:39.807Z,101180.00
2023-02-26T20:27:07.988Z,101180.00
2023-02-26T20:29:35.714Z,101177.00
2023-02-26T20:32:03.470Z,101179.00
2023-02-26T20:34:31.145Z,101180.00
2023-02-26T20:36:58.950Z,101186.00
2023-02-26T20:39:26.664Z,101193.00
2023-02-26T20:41:54.411Z,101184.00
2023-02-26T20:44:22.090Z,101184.00
2023-02-26T20:46:50.201Z,101186.00
2023-02-26T20:49:21.033Z,101187.00
2023-02-26T20:51:50.687Z,101198.00
2023-02-26T20:54:20.606Z,101186.00
2023-02-26T20:56:49.126Z,101190.00
2023-02-26T20:59:18.121Z,101196.00
2023-02-26T21:01:46.634Z,101197.00
2023-02-26T21:04:17.883Z,101192.00
2023-02-26T21:06:45.631Z,101194.00
2023-02-26T21:09:13.918Z,101196.00
2023-02-26T21:11:44.829Z,101199.00
2023-02-26T21:14:12.626Z,101204.00
2023-02-26T21:16:41.709Z,101202.00
2023-02-26T21:19:10.988Z,101204.00
2023-02-26T21:21:38.954Z,101206.00
2023-02-26T21:24:06.966Z,101201.00
2023-02-26T21:26:35.377Z,101199.00
2023-02-26T21:29:05.041Z,101209.00
2023-02-26T21:31:34.648Z,101203.00
2023-02-26T21:34:23.573Z,101215.00
2023-02-26T21:36:53.964Z,101216.00
2023-02-26T21:39:21.685Z,101212.00
2023-02-26T21:41:49.453Z,101224.00
2023-02-26T21:44:17.122Z,101227.00
2023-02-26T21:46:45.965Z,101223.00
2023-02-26T21:49:13.864Z,101223.00
2023-02-26T21:51:41.781Z,101219.00
2023-02-26T21:54:09.673Z,101220.00
2023-02-26T21:56:38.129Z,101224.00
2023-02-26T21:59:05.973Z,101223.00
2023-02-26T22:01:33.817Z,101228.00
2023-02-26T22:04:01.706Z,101228.00
2023-02-26T22:06:29.380Z,101224.00
2023-02-26T22:08:58.761Z,101228.00
2023-02-26T22:11:29.365Z,101222.00
2023-02-26T22:13:57.088Z,101232.00
2023-02-26T22:16:25.006Z,101233.00
2023-02-26T22:18:52.755Z,101234.00
2023-02-26T22:21:20.604Z,101232.00
2023-02-26T22:23:48.337Z,101228.00
2023-02-26T22:26:16.218Z,101237.00
2023-02-26T22:28:44.010Z,101236.00
2023-02-26T22:31:11.882Z,101233.00
2023-02-26T22:33:39.928Z,101235.00
2023-02-26T22:36:07.991Z,101230.00
2023-02-26T22:38:35.703Z,101230.00
2023-02-26T22:41:03.407Z,101242.00
2023-02-26T22:43:31.213Z,101245.00
2023-02-26T22:45:59.003Z,101243.00
2023-02-26T22:48:27.761Z,101247.00
2023-02-26T22:50:55.681Z,101243.00
2023-02-26T22:53:23.314Z,101251.00
2023-02-26T22:55:54.044Z,101249.00
2023-02-26T22:58:21.817Z,101248.00
2023-02-26T23:00:49.729Z,101258.00
2023-02-26T23:03:17.471Z,101250.00
2023-02-26T23:05:48.141Z,101251.00
2023-02-26T23:08:15.955Z,101255.00
2023-02-26T23:10:47.288Z,101261.00
2023-02-26T23:13:15.194Z,101258.00
2023-02-26T23:15:42.891Z,101263.00
2023-02-26T23:18:10.628Z,101264.00
2023-02-26T23:20:38.426Z,101260.00
2023-02-26T23:23:06.551Z,101258.00
2023-02-26T23:25:34.259Z,101261.00
2023-02-26T23:28:02.115Z,101257.00
2023-02-26T23:30:29.965Z,101265.00
2023-02-26T23:32:58.039Z,101264.00
2023-02-26T23:35:25.767Z,101258.00
2023-02-26T23:37:53.465Z,101260.00
2023-02-26T23:40:21.311Z,101270.00
2023-02-26T23:42:49.627Z,101262.00
2023-02-26T23:45:17.385Z,101274.00
2023-02-26T23:47:45.135Z,101267.00
2023-02-26T23:50:12.816Z,101266.00
2023-02-26T23:52:40.550Z,101268.00
2023-02-26T23:55:08.523Z,101276.00
2023-02-26T23:57:36.330Z,101279.00
